DMAD Reservoir




Date Reservoir Capacity (AF) Hourly Avg. Stream Stage (ft) Reservoir Outflow (cfs) Reservoir Gate 1 Height (ft) Reservoir Gate 2 Height (ft) Reservoir Gate 3 Height (ft) Stream Flow (cfs) Stream Conductivity (ppm) Battery Voltage (V) Reservoir Height (ft) Canal Flow (cfs) Canal Height (ft) Canal Flow 2 (ft)
06/01/2019 4,997 0 0.00 0.00 0.00 0.00 0.00 13.60 59.95 0.00 0.00
06/02/2019 4,997 32 0.17 0.00 0.23 0.00 0.00 13.37 59.95 0.00 0.00
06/03/2019 4,997 112 0.72 0.00 0.70 0.00 0.00 13.22 59.95 0.00 0.00
06/04/2019 5,004 111 0.74 0.00 0.66 0.00 0.00 13.55 59.96 0.00 0.00
06/05/2019 0 0.62 0.00 0.31 0.00 0.00 13.77 0.00 0.00 0.00
06/06/2019 0 0.62 0.00 0.30 0.00 0.00 13.50 0.00 0.00 0.00
06/07/2019 0 0.62 0.00 0.83 0.00 0.00 13.42 0.00 0.00 0.00
06/08/2019 0 0.62 0.00 1.00 0.00 0.00 13.64 0.00 0.00 0.00
06/09/2019 0 0.62 0.00 1.00 0.00 0.00 13.70 0.00 0.00 0.00
06/10/2019 0 0.62 0.00 0.98 0.00 0.00 13.63 0.00 0.00 0.00
06/11/2019 0 0.62 0.00 0.57 0.00 0.00 13.53 0.00 0.00 0.00
06/12/2019 0 0.62 0.00 0.45 0.00 0.00 13.60 0.00 0.00 0.00
06/13/2019 7,063 25 0.31 0.00 0.00 0.00 0.00 13.36 62.29 0.00 0.00
06/14/2019 63 0.00 0.00 0.66 0.00 0.00 13.44 72.00 0.00 0.00
06/15/2019 113 0.00 0.00 1.00 0.00 0.00 13.15 69.72 0.00 0.00
06/16/2019 509 0.00 0.00 2.89 0.00 0.00 12.91 110.40 0.00 0.00
06/17/2019 367 0.71 0.00 2.20 0.00 0.00 12.95 78.70 0.00 0.00
06/18/2019 320 1.30 0.00 1.21 0.00 0.00 13.22 78.90 0.00 0.00
06/19/2019 317 1.30 0.00 1.00 0.00 0.00 13.61 87.00 0.00 0.00
06/20/2019 332 1.30 0.00 1.00 0.00 0.00 13.50 89.70 0.00 0.00
06/21/2019 341 1.30 0.00 1.00 0.00 0.00 13.63 92.10 0.00 0.00
06/22/2019 407 1.30 0.00 1.00 0.00 0.00 13.62 108.20 0.00 0.00
06/23/2019 545 1.30 0.00 1.75 0.00 0.00 13.49 111.70 0.00 0.00
06/24/2019 494 1.30 0.00 2.00 0.00 0.00 13.58 92.10 0.00 0.00
06/25/2019 494 1.30 0.00 1.83 0.00 0.00 13.50 99.50 0.00 0.00
06/26/2019 655 1.30 0.00 1.48 0.00 0.00 13.45 152.70 0.00 0.00
06/27/2019 707 1.30 0.00 1.68 0.00 0.00 13.37 154.20 0.00 0.00
06/28/2019 741 1.30 0.00 2.00 0.00 0.00 13.53 143.50 0.00 0.00
06/29/2019 408 1.30 0.00 1.34 0.00 0.00 13.38 98.70 0.00 0.00
06/30/2019 371 1.30 0.00 1.03 0.00 0.00 12.91 98.50 0.00 0.00
Average 249 0.00 0.00
Maximum 741 0.00 0.00
Minimum 0 0.00 0.00
Total Volume (AF) 14,801 0.00 0.00